Time;durP1;ratioP1;P1;durP2;ratioP2;P2;SDS_P1;SDS_P2;PMS_P1;PMS_P2;Temp;Humidity;BMP_temperature;BMP_pressure;BME280_temperature;BME280_humidity;BME280_pressure;Samples;Min_cycle;Max_cycle;Signal;HPM_P1;HPM_P2
2022/12/17 13:08:28;;;;;;;39.17;12.00;;;;;0.20;96991.00;;;;8298553;28;20285;-71
2022/12/17 13:13:10;;;;;;;33.13;12.47;;;;;0.30;97001.00;;;;8297250;28;20194;-72
2022/12/17 13:17:45;;;;;;;30.30;11.10;;;;;0.20;96997.00;;;;8298244;28;20671;-71
2022/12/17 13:22:29;;;;;;;28.37;11.23;;;;;0.10;96996.00;;;;8297031;28;20227;-70
2022/12/17 13:27:03;;;;;;;34.10;12.83;;;;;0.00;97006.00;;;;8298463;28;20224;-71
2022/12/17 13:31:44;;;;;;;32.00;12.10;;;;;0.00;97002.00;;;;8295989;28;20217;-71
2022/12/17 13:36:18;;;;;;;27.03;11.37;;;;;-0.10;97017.00;;;;8299301;28;20197;-72
2022/12/17 13:40:34;;;;;;;27.77;11.30;;;;;0.00;97025.00;;;;8304363;28;20548;-72
2022/12/17 13:44:56;;;;;;;25.43;10.70;;;;;-0.10;97029.00;;;;8304301;28;20213;-72
2022/12/17 13:49:33;;;;;;;30.77;11.87;;;;;-0.20;97038.00;;;;8302935;28;20642;-72
2022/12/17 13:54:14;;;;;;;29.60;11.27;;;;;-0.20;97042.00;;;;8304097;28;20230;-72
2022/12/17 13:58:25;;;;;;;28.77;11.37;;;;;-0.20;97035.00;;;;8302887;28;20686;-72
2022/12/17 14:02:56;;;;;;;25.47;10.43;;;;;-0.30;97046.00;;;;8303804;28;20222;-72
2022/12/17 14:12:33;;;;;;;31.83;12.47;;;;;-0.40;97067.00;;;;8303485;28;20225;-72
2022/12/17 14:17:14;;;;;;;28.70;10.90;;;;;-0.50;97070.00;;;;8302344;28;20198;-72
2022/12/17 14:21:45;;;;;;;29.13;12.67;;;;;-0.60;97070.00;;;;8302914;28;20186;-72
2022/12/17 14:26:22;;;;;;;32.17;12.87;;;;;-0.70;97067.00;;;;8300763;28;20260;-72
2022/12/17 14:30:34;;;;;;;54.63;18.07;;;;;-0.70;97076.00;;;;8302120;28;20232;-71
2022/12/17 14:35:03;;;;;;;41.63;15.23;;;;;-0.80;97074.00;;;;8301477;28;20189;-72
2022/12/17 14:39:43;;;;;;;47.23;15.13;;;;;-1.10;97069.00;;;;8299957;28;20218;-71
2022/12/17 14:44:18;;;;;;;36.60;13.53;;;;;-1.40;97076.00;;;;8302394;28;20262;-69
2022/12/17 14:49:09;;;;;;;30.83;13.20;;;;;-1.60;97086.00;;;;8300745;28;20201;-69
2022/12/17 14:53:40;;;;;;;35.87;13.03;;;;;-1.70;97092.00;;;;8302588;28;20209;-70
2022/12/17 14:58:19;;;;;;;30.60;12.63;;;;;-2.00;97093.00;;;;8301829;28;20234;-69
2022/12/17 15:02:56;;;;;;;26.27;11.27;;;;;-2.20;97094.00;;;;8301419;28;20675;-69
2022/12/17 15:12:32;;;;;;;27.13;10.50;;;;;-2.80;97109.00;;;;8300672;28;20224;-73
2022/12/17 15:17:10;;;;;;;30.37;11.83;;;;;-3.10;97109.00;;;;8300581;28;20198;-72
2022/12/17 15:21:44;;;;;;;31.17;12.37;;;;;-3.40;97105.00;;;;8300078;28;20244;-69
2022/12/17 15:26:21;;;;;;;34.03;10.93;;;;;-3.70;97114.00;;;;8300917;28;20206;-70
2022/12/17 15:30:24;;;;;;;30.40;11.43;;;;;-3.90;97108.00;;;;8300199;28;20194;-69
2022/12/17 15:35:00;;;;;;;29.60;11.17;;;;;-4.10;97111.00;;;;8300671;28;20707;-70
2022/12/17 15:39:34;;;;;;;34.70;11.60;;;;;-4.30;97122.00;;;;8300289;28;20227;-69
2022/12/17 15:44:11;;;;;;;29.50;10.47;;;;;-4.50;97116.00;;;;8299776;28;20233;-69
2022/12/17 15:48:16;;;;;;;28.60;10.03;;;;;-4.70;97130.00;;;;8299776;28;20202;-69
2022/12/17 15:52:30;;;;;;;25.93;10.90;;;;;-4.80;97125.00;;;;8300726;28;20260;-69
2022/12/17 15:56:33;;;;;;;26.10;10.47;;;;;-4.90;97133.00;;;;8300633;28;20206;-69
2022/12/17 16:00:36;;;;;;;25.93;11.03;;;;;-5.00;97135.00;;;;8299303;28;20229;-69
2022/12/17 16:05:13;;;;;;;28.00;10.70;;;;;-5.00;97136.00;;;;8299118;28;20232;-69
2022/12/17 16:09:52;;;;;;;29.13;9.83;;;;;-5.10;97125.00;;;;8301269;28;20631;-69
2022/12/17 16:14:32;;;;;;;20.03;8.70;;;;;-5.20;97120.00;;;;8299016;28;20271;-68
2022/12/17 16:19:09;;;;;;;23.87;9.23;;;;;-5.30;97127.00;;;;8300210;28;20666;-69
2022/12/17 16:23:46;;;;;;;33.67;11.03;;;;;-5.20;97122.00;;;;8299520;28;20509;-70
2022/12/17 16:27:50;;;;;;;25.93;10.23;;;;;-5.20;97124.00;;;;8299939;28;20665;-70
2022/12/17 16:32:24;;;;;;;28.03;11.33;;;;;-5.20;97129.00;;;;8298798;28;20197;-69
2022/12/17 16:36:27;;;;;;;35.23;10.90;;;;;-5.30;97125.00;;;;8299718;28;20722;-69
2022/12/17 16:41:03;;;;;;;26.43;10.57;;;;;-5.40;97134.00;;;;8298863;28;20374;-69
2022/12/17 16:45:08;;;;;;;28.60;11.23;;;;;-5.30;97128.00;;;;8298529;28;20247;-69
2022/12/17 16:49:42;;;;;;;33.43;11.23;;;;;-5.00;97132.00;;;;8297619;28;20198;-69
2022/12/17 16:53:45;;;;;;;34.57;11.97;;;;;-4.80;97141.00;;;;8298496;28;20204;-69
2022/12/17 16:58:22;;;;;;;36.27;11.50;;;;;-4.60;97148.00;;;;8297757;28;20232;-69
2022/12/17 17:02:26;;;;;;;38.43;12.97;;;;;-4.50;97149.00;;;;8299046;28;20225;-69
2022/12/17 17:07:00;;;;;;;32.67;12.13;;;;;-4.40;97168.00;;;;8297942;28;20212;-69
2022/12/17 17:11:14;;;;;;;38.57;14.33;;;;;-4.50;97155.00;;;;8304852;28;20208;-69
2022/12/17 17:15:17;;;;;;;38.10;13.57;;;;;-4.50;97167.00;;;;8308937;28;20197;-69
2022/12/17 17:19:22;;;;;;;37.57;13.40;;;;;-4.50;97172.00;;;;8309242;28;20231;-69
2022/12/17 17:23:57;;;;;;;33.17;12.47;;;;;-4.60;97170.00;;;;8309396;28;20194;-69
2022/12/17 17:28:31;;;;;;;31.00;12.00;;;;;-4.80;97184.00;;;;8308570;28;20193;-69
2022/12/17 17:32:34;;;;;;;38.60;13.23;;;;;-4.80;97178.00;;;;8309187;28;20731;-69
2022/12/17 17:36:39;;;;;;;35.53;13.00;;;;;-4.80;97184.00;;;;8308920;28;20602;-70
2022/12/17 17:40:43;;;;;;;39.53;12.97;;;;;-4.90;97185.00;;;;8309123;28;20233;-70
2022/12/17 17:44:47;;;;;;;35.53;12.20;;;;;-5.10;97189.00;;;;8307882;28;20200;-69
2022/12/17 17:49:24;;;;;;;43.87;14.07;;;;;-5.30;97191.00;;;;8309045;28;20208;-68
2022/12/17 17:53:28;;;;;;;34.33;13.23;;;;;-5.40;97183.00;;;;8308505;28;20201;-68
2022/12/17 17:57:36;;;;;;;32.70;13.27;;;;;-5.60;97194.00;;;;8308261;28;20200;-69
2022/12/17 18:01:41;;;;;;;35.60;12.50;;;;;-5.80;97191.00;;;;8310065;28;20679;-69
2022/12/17 18:05:45;;;;;;;41.67;13.47;;;;;-6.00;97209.00;;;;8307522;28;20223;-68
2022/12/17 18:09:49;;;;;;;47.83;14.57;;;;;-6.40;97217.00;;;;8308645;28;20262;-68
2022/12/17 18:14:01;;;;;;;44.27;15.40;;;;;-6.70;97215.00;;;;8308528;28;20243;-68
2022/12/17 18:18:32;;;;;;;44.73;13.83;;;;;-6.70;97225.00;;;;8307997;28;20192;-68
2022/12/17 18:22:35;;;;;;;40.97;15.20;;;;;-6.80;97226.00;;;;8304882;28;20278;-68
2022/12/17 18:27:11;;;;;;;40.03;14.23;;;;;-7.00;97224.00;;;;8303566;28;20208;-68
2022/12/17 18:31:15;;;;;;;51.10;16.73;;;;;-7.20;97231.00;;;;8303094;28;20267;-68
2022/12/17 18:35:19;;;;;;;49.13;16.03;;;;;-7.40;97232.00;;;;8302786;28;20593;-68
2022/12/17 18:39:55;;;;;;;48.30;15.17;;;;;-7.50;97237.00;;;;8302681;28;20234;-68
2022/12/17 18:44:01;;;;;;;51.20;17.20;;;;;-7.80;97238.00;;;;8302868;28;20197;-68
2022/12/17 18:48:05;;;;;;;40.90;15.77;;;;;-7.90;97242.00;;;;8303064;28;20571;-68
2022/12/17 18:52:08;;;;;;;60.60;18.70;;;;;-8.00;97255.00;;;;8302291;28;20196;-68
2022/12/17 18:56:43;;;;;;;38.93;15.73;;;;;-8.00;97256.00;;;;8302965;28;20187;-68
2022/12/17 19:01:06;;;;;;;42.43;15.47;;;;;-8.10;97263.00;;;;8302491;28;20210;-68
2022/12/17 19:05:09;;;;;;;47.70;15.93;;;;;-8.20;97267.00;;;;8302164;28;20310;-68
2022/12/17 19:09:17;;;;;;;41.47;15.17;;;;;-8.30;97266.00;;;;8301229;28;20219;-68
2022/12/17 19:13:20;;;;;;;37.23;14.20;;;;;-8.30;97267.00;;;;8302003;28;20645;-68
2022/12/17 19:17:25;;;;;;;41.73;15.13;;;;;-8.30;97286.00;;;;8301183;28;20194;-67
2022/12/17 19:21:59;;;;;;;43.13;14.47;;;;;-8.30;97284.00;;;;8300605;28;20272;-67
2022/12/17 19:26:36;;;;;;;38.30;14.03;;;;;-8.30;97286.00;;;;8301717;28;20274;-67
2022/12/17 19:30:39;;;;;;;41.33;15.40;;;;;-8.30;97282.00;;;;8301472;28;20536;-68
2022/12/17 19:34:43;;;;;;;52.63;17.00;;;;;-8.30;97287.00;;;;8299976;28;20543;-68
2022/12/17 19:39:17;;;;;;;56.13;17.63;;;;;-8.30;97300.00;;;;8300769;28;20223;-67
2022/12/17 19:43:20;;;;;;;43.47;15.47;;;;;-8.30;97296.00;;;;8300437;28;20195;-67
2022/12/17 19:47:54;;;;;;;47.43;17.40;;;;;-8.30;97303.00;;;;8300873;28;20575;-67
2022/12/17 19:51:58;;;;;;;63.43;19.67;;;;;-8.20;97298.00;;;;8300585;28;20221;-67
2022/12/17 19:56:32;;;;;;;61.73;20.60;;;;;-8.00;97309.00;;;;8298277;28;20203;-67
2022/12/17 20:01:10;;;;;;;73.47;22.57;;;;;-7.70;97302.00;;;;8301002;28;20598;-67
2022/12/17 20:05:44;;;;;;;65.00;21.73;;;;;-7.20;97312.00;;;;8299822;28;20266;-66
2022/12/17 20:09:49;;;;;;;73.03;24.07;;;;;-6.80;97302.00;;;;8300023;28;20211;-67
2022/12/17 20:13:53;;;;;;;77.30;22.60;;;;;-6.30;97313.00;;;;8299921;28;20542;-67
2022/12/17 20:18:31;;;;;;;84.23;22.83;;;;;-5.90;97315.00;;;;8300075;28;20696;-67
2022/12/17 20:22:34;;;;;;;77.13;24.60;;;;;-5.50;97327.00;;;;8298728;28;20200;-67
2022/12/17 20:27:12;;;;;;;83.30;24.97;;;;;-5.20;97329.00;;;;8300391;28;20591;-67
2022/12/17 20:31:16;;;;;;;96.40;26.63;;;;;-4.90;97334.00;;;;8296487;28;20192;-68
2022/12/17 20:35:20;;;;;;;89.40;26.37;;;;;-4.60;97319.00;;;;8298826;28;20193;-67
2022/12/17 20:39:54;;;;;;;135.43;27.63;;;;;-4.40;97308.00;;;;8295883;28;20313;-68
2022/12/17 20:44:33;;;;;;;97.23;25.83;;;;;-4.20;97304.00;;;;8295708;28;20255;-68
2022/12/17 20:49:11;;;;;;;132.33;27.17;;;;;-4.00;97306.00;;;;8298404;28;20236;-68
2022/12/17 20:53:45;;;;;;;112.60;27.97;;;;;-3.80;97310.00;;;;8298742;28;20192;-68
2022/12/17 20:58:21;;;;;;;95.43;27.73;;;;;-3.60;97323.00;;;;8298695;28;20198;-68
2022/12/17 21:03:00;;;;;;;92.20;26.73;;;;;-3.50;97334.00;;;;8297351;28;20230;-68
2022/12/17 21:07:34;;;;;;;109.27;27.87;;;;;-3.30;97333.00;;;;8299107;28;20245;-68
2022/12/17 21:12:12;;;;;;;97.03;29.17;;;;;-3.20;97341.00;;;;8299651;28;20264;-68
2022/12/17 21:16:46;;;;;;;200.60;92.70;;;;;-3.10;97346.00;;;;8299299;28;20277;-68
2022/12/17 21:21:23;;;;;;;93.77;28.10;;;;;-3.00;97350.00;;;;8298429;28;20229;-68
2022/12/17 21:25:28;;;;;;;139.70;45.70;;;;;-3.00;97356.00;;;;8298799;28;20206;-68
2022/12/17 21:29:31;;;;;;;121.50;33.63;;;;;-2.90;97356.00;;;;8296835;28;20194;-68
2022/12/17 21:33:34;;;;;;;112.90;30.63;;;;;-2.80;97361.00;;;;8298199;28;20190;-68
2022/12/17 21:37:37;;;;;;;110.13;31.53;;;;;-2.70;97357.00;;;;8296456;28;20201;-68
2022/12/17 21:43:00;;;;;;;99.17;29.43;;;;;-2.60;97354.00;;;;8297691;28;20280;-68
2022/12/17 21:46:07;;;;;;;129.20;39.63;;;;;-2.50;97352.00;;;;8298383;28;20193;-68
2022/12/17 21:50:10;;;;;;;101.03;32.10;;;;;-2.50;97361.00;;;;8297851;28;20226;-69
2022/12/17 21:54:44;;;;;;;99.47;31.80;;;;;-2.50;97347.00;;;;8297664;28;20202;-69
2022/12/17 21:58:49;;;;;;;110.00;32.50;;;;;-2.50;97354.00;;;;8302447;28;20198;-68
2022/12/17 22:02:52;;;;;;;102.23;30.30;;;;;-2.40;97364.00;;;;8303085;28;20668;-69
2022/12/17 22:06:55;;;;;;;105.47;31.70;;;;;-2.30;97378.00;;;;8304564;28;20194;-69
2022/12/17 22:11:10;;;;;;;101.10;29.73;;;;;-2.20;97381.00;;;;8303624;28;20209;-69
2022/12/17 22:15:46;;;;;;;103.97;29.83;;;;;-2.20;97383.00;;;;8303836;28;20205;-69
2022/12/17 22:19:51;;;;;;;89.67;25.40;;;;;-2.10;97379.00;;;;8304610;28;20248;-70
2022/12/17 22:23:55;;;;;;;98.73;28.50;;;;;-2.20;97378.00;;;;8302814;28;20194;-70
2022/12/17 22:27:58;;;;;;;93.60;25.20;;;;;-2.10;97384.00;;;;8304320;28;20285;-70
2022/12/17 22:36:24;;;;;;;101.77;26.47;;;;;-2.00;97386.00;;;;8302643;28;20202;-69
2022/12/17 22:40:47;;;;;;;108.43;30.67;;;;;-2.00;97404.00;;;;8302352;28;20228;-69
2022/12/17 22:45:10;;;;;;;92.67;27.70;;;;;-2.00;97401.00;;;;8303425;28;20631;-70
2022/12/17 22:49:16;;;;;;;106.70;31.17;;;;;-2.00;97403.00;;;;8302272;28;20190;-70
2022/12/17 22:53:20;;;;;;;98.70;29.90;;;;;-2.00;97408.00;;;;8302688;28;20194;-69
2022/12/17 22:57:24;;;;;;;103.23;26.90;;;;;-1.90;97411.00;;;;8302117;28;20543;-69
2022/12/17 23:01:58;;;;;;;115.73;28.57;;;;;-2.00;97402.00;;;;8302640;28;20548;-69
2022/12/17 23:06:12;;;;;;;115.27;28.20;;;;;-2.10;97412.00;;;;8301585;28;20245;-69
2022/12/17 23:10:18;;;;;;;102.47;26.60;;;;;-2.20;97413.00;;;;8302351;28;20210;-69
2022/12/17 23:14:52;;;;;;;143.53;26.70;;;;;-2.20;97411.00;;;;8301519;28;20198;-69
2022/12/17 23:18:55;;;;;;;99.90;27.00;;;;;-2.30;97419.00;;;;8300026;28;20717;-69
2022/12/17 23:23:32;;;;;;;98.27;26.30;;;;;-2.20;97414.00;;;;8300254;28;20226;-69
2022/12/17 23:27:37;;;;;;;121.10;27.07;;;;;-2.20;97406.00;;;;8302093;28;20201;-69
2022/12/17 23:32:10;;;;;;;126.70;29.30;;;;;-2.20;97416.00;;;;8300550;28;20532;-69
2022/12/17 23:36:15;;;;;;;110.27;27.00;;;;;-2.30;97412.00;;;;8301206;28;20198;-68
2022/12/17 23:40:18;;;;;;;118.87;29.00;;;;;-2.30;97411.00;;;;8301065;28;20218;-68
2022/12/17 23:44:52;;;;;;;105.37;25.67;;;;;-2.40;97413.00;;;;8300290;28;20199;-69
2022/12/17 23:48:57;;;;;;;85.13;24.23;;;;;-2.50;97410.00;;;;8301073;28;20624;-68
2022/12/17 23:53:31;;;;;;;93.47;26.63;;;;;-2.40;97409.00;;;;8300623;28;20194;-68
2022/12/17 23:57:34;;;;;;;173.87;28.30;;;;;-2.40;97396.00;;;;8299662;28;20194;-68
